Latest Coastal Weather Observations for Orbost

IDV60701

Issued at 8:15 am EST Tuesday 23 September 2014 (issued every 10 minutes, with the page automatically refreshed every 10 minutes)

About coastal observations | Map of coastal stations | Coastal observations for VIC | Marine services | Other Formats
Station Details ID: 084145 Name: ORBOST Lat: -37.69 Lon: 148.47 Height: 62.65 m
Data from the previous 72 hours. | See also: Recent months at Orbost
Date/Time
EST
Temp

°C
Wind Pressure Rain
since 9am
mm
Weather Cloud Vis
km
Sea
Height
m
Swell
Dir
 
Speed
knots
Gust
knots
hPa Trend Height
m
Period
s
Dir
23/08:00am 13.0 WNW 1 2 1028.4 - 0.0 - - - - - - -
23/07:30am 11.7 CALM 0 0 1028.1 - 0.0 - - - - - - -
23/07:00am 10.6 WNW 1 1 1027.9 - 0.0 - - - - - - -
23/06:30am 9.8 CALM 0 1 1027.9 - 0.0 - - - - - - -
23/06:00am 8.3 CALM 0 0 1027.8 - 0.0 - - - - - - -
23/05:30am 8.8 CALM 0 0 1027.6 - 0.0 - - - - - - -
23/05:00am 9.2 CALM 0 0 1027.4 - 0.0 - - - - - - -
23/04:30am 8.8 CALM 0 0 1027.3 - 0.0 - - - - - - -
23/04:00am 9.7 CALM 0 0 1027.1 - 0.0 - - - - - - -
23/03:30am 9.9 N 1 2 1027.0 - 0.0 - - - - - - -
23/03:00am 10.2 CALM 0 0 1027.0 - 0.0 - - - - - - -
23/02:30am 10.0 CALM 0 0 1027.1 - 0.0 - - - - - - -
23/02:00am 9.1 N 1 2 1027.4 - 0.0 - - - - - - -
23/01:30am 9.9 N 3 4 1027.7 - 0.0 - - - - - - -
23/01:00am 9.5 CALM 0 0 1028.0 - 0.0 - - - - - - -
23/12:30am 10.1 CALM 0 0 1028.0 - 0.0 - - - - - - -
23/12:00am 9.1 N 1 3 1028.0 - 0.0 - - - - - - -
 
Date/Time
EST
Temp

°C
Wind Pressure Rain
since 9am
mm
Weather Cloud Vis
km
Sea
Height
m
Swell
Dir
 
Speed
knots
Gust
knots
hPa Trend Height
m
Period
s
Dir
22/11:30pm 9.5 CALM 0 0 1028.0 - 0.0 - - - - - - -
22/11:00pm 10.3 CALM 0 0 1027.9 - 0.0 - - - - - - -
22/10:30pm 10.4 CALM 0 0 1028.0 - 0.0 - - - - - - -
22/10:00pm 9.9 CALM 0 0 1028.0 - 0.0 - - - - - - -
22/09:30pm 11.2 N 2 2 1028.1 - 0.0 - - - - - - -
22/09:00pm 12.3 NNW 2 3 1028.2 - 0.0 - - - - - - -
22/08:30pm 11.9 NNW 2 3 1028.1 - 0.0 - - - - - - -
22/08:00pm 12.4 N 3 4 1028.0 - 0.0 - - - - - - -
22/07:30pm 12.4 NW 1 2 1027.8 - 0.0 - - - - - - -
22/07:00pm 13.1 N 1 2 1027.6 - 0.0 - - - - - - -
22/06:30pm 14.6 CALM 0 0 1027.4 - 0.0 - - - - - - -
22/06:00pm 15.2 CALM 0 1 1027.1 - 0.0 - - - - - - -
22/05:30pm 16.6 SSE 2 4 1027.0 - 0.0 - - - - - - -
22/05:00pm 17.8 SSE 3 5 1026.8 - 0.0 - - - - - - -
22/04:30pm 18.2 SE 3 5 1026.7 - 0.0 - - - - - - -
22/04:00pm 18.7 SSE 4 6 1026.7 - 0.0 - - - - - - -
22/03:30pm 18.5 SE 4 7 1026.6 - 0.0 - - - - - - -
22/03:00pm 18.7 SSE 4 7 1026.9 - 0.0 - - - - - - -
22/02:30pm 19.2 SE 5 8 1027.0 - 0.0 - - - - - - -
22/02:00pm 18.8 S 5 8 1027.2 - 0.0 - - - - - - -
22/01:30pm 18.8 SSE 4 8 1027.4 - 0.0 - - - - - - -
22/01:00pm 18.8 SSE 5 7 1027.7 - 0.0 - - - - - - -
22/12:30pm 18.1 SSE 5 7 1027.9 - 0.0 - - - - - - -
22/12:00pm 18.5 SSE 4 7 1028.3 - 0.0 - - - - - - -
22/11:30am 17.7 S 4 6 1028.9 - 0.0 - - - - - - -
22/11:00am 16.3 S 3 6 1029.3 - 0.0 - - - - - - -
22/10:30am 15.3 S 3 4 1029.7 - 0.0 - - - - - - -
22/10:00am 14.8 SSE 1 2 1030.2 - 0.0 - - - - - - -
22/09:30am 13.6 W 2 3 1030.5 - 0.0 - - - - - - -
22/09:00am 11.8 SW 1 2 1030.8 - 0.0 - - - - - - -
22/08:30am 10.1 S 1 3 1030.8 - 0.0 - - - - - - -
22/08:00am 8.9 SSW 1 2 1030.7 - 0.0 - - - - - - -
22/07:30am 7.4 CALM 0 0 1030.7 - 0.0 - - - - - - -
22/07:00am 7.2 CALM 0 2 1030.5 - 0.0 - - - - - - -
22/06:30am 5.3 NNW 1 1 1030.5 - 0.0 - - - - - - -
22/06:00am 4.9 N 2 3 1030.3 - 0.0 - - - - - - -
22/05:30am 5.1 NNW 1 1 1030.2 - 0.0 - - - - - - -
22/05:00am 5.7 NNW 1 3 1030.0 - 0.0 - - - - - - -
22/04:30am 6.3 CALM 0 0 1029.8 - 0.0 - - - - - - -
22/04:00am 5.8 NE 1 2 1029.7 - 0.0 - - - - - - -
22/03:30am 5.5 CALM 0 0 1029.8 - 0.0 - - - - - - -
22/03:00am 5.5 CALM 0 1 1030.0 - 0.0 - - - - - - -
22/02:30am 5.5 CALM 0 1 1030.1 - 0.0 - - - - - - -
22/02:00am 6.3 CALM 0 0 1030.2 - 0.0 - - - - - - -
22/01:30am 6.2 CALM 0 0 1030.4 - 0.0 - - - - - - -
22/01:00am 7.5 N 4 5 1030.5 - 0.0 - - - - - - -
22/12:30am 6.5 CALM 0 0 1030.7 - 0.0 - - - - - - -
22/12:00am 6.6 CALM 0 0 1030.6 - 0.0 - - - - - - -
 
Date/Time
EST
Temp

°C
Wind Pressure Rain
since 9am
mm
Weather Cloud Vis
km
Sea
Height
m
Swell
Dir
 
Speed
knots
Gust
knots
hPa Trend Height
m
Period
s
Dir
21/11:30pm 6.8 CALM 0 1 1030.6 - 0.0 - - - - - - -
21/11:00pm 7.5 N 4 5 1030.6 - 0.0 - - - - - - -
21/10:30pm 7.4 N 3 4 1030.8 - 0.0 - - - - - - -
21/10:00pm 6.7 N 3 4 1030.9 - 0.0 - - - - - - -
21/09:30pm 7.5 CALM 0 0 1030.9 - 0.0 - - - - - - -
21/09:00pm 8.2 N 4 5 1030.9 - 0.0 - - - - - - -
21/08:30pm 9.3 N 4 5 1031.1 - 0.0 - - - - - - -
21/08:00pm 8.7 N 4 5 1031.0 - 0.0 - - - - - - -
21/07:30pm 8.9 CALM 0 2 1030.8 - 0.0 - - - - - - -
21/07:00pm 9.2 CALM 0 0 1030.6 - 0.0 - - - - - - -
21/06:30pm 10.4 CALM 0 1 1030.4 - 0.0 - - - - - - -
21/06:00pm 11.7 CALM 0 1 1030.1 - 0.0 - - - - - - -
21/05:30pm 12.6 S 4 6 1030.1 - 0.0 - - - - - - -
21/05:00pm 13.2 S 4 7 1029.9 - 0.0 - - - - - - -
21/04:30pm 13.7 S 5 8 1029.5 - 0.0 - - - - - - -
21/04:00pm 14.1 S 6 10 1029.4 - 0.0 - - - - - - -
21/03:30pm 14.8 S 4 7 1029.1 - 0.0 - - - - - - -
21/03:00pm 14.7 SE 4 6 1029.1 - 0.0 - - - - - - -
21/02:30pm 14.9 S 4 7 1029.4 - 0.0 - - - - - - -
21/02:00pm 14.9 SW 6 10 1029.7 - 0.0 - - - - - - -
21/01:30pm 14.4 SSW 8 12 1030.0 - 0.0 - - - - - - -
21/01:00pm 14.8 SW 6 12 1030.2 - 0.0 - - - - - - -
21/12:30pm 14.8 SW 4 8 1030.3 - 0.0 - - - - - - -
21/12:00pm 15.0 W 6 9 1030.5 - 0.0 - - - - - - -
21/11:30am 13.6 WSW 6 10 1031.0 - 0.0 - - - - - - -
21/11:00am 13.3 W 8 12 1031.3 - 0.0 - - - - - - -
21/10:30am 13.3 W 7 10 1031.4 - 0.0 - - - - - - -
21/10:00am 13.7 W 7 10 1031.5 - 0.0 - - - - - - -
21/09:30am 12.8 W 6 10 1031.6 - 0.0 - - - - - - -
21/09:00am 12.3 WNW 5 9 1031.7 - 0.0 - - - - - - -
21/08:30am 11.6 NW 5 8 1031.6 - 0.0 - - - - - - -
21/08:00am 11.1 NW 5 9 1031.4 - 0.0 - - - - - - -
21/07:30am 10.6 NW 5 9 1031.0 - 0.0 - - - - - - -
21/07:00am 10.1 NW 4 7 1030.8 - 0.0 - - - - - - -
21/06:30am 9.8 NW 5 8 1030.6 - 0.0 - - - - - - -
21/06:00am 9.5 NW 4 5 1030.4 - 0.0 - - - - - - -
21/05:30am 9.3 WNW 4 7 1030.2 - 0.0 - - - - - - -
21/05:00am 9.0 WNW 4 5 1029.9 - 0.0 - - - - - - -
21/04:30am 8.6 WNW 4 7 1029.4 - 0.0 - - - - - - -
21/04:00am 8.7 NW 4 7 1028.9 - 0.0 - - - - - - -
21/03:30am 8.7 NW 4 5 1028.9 - 0.0 - - - - - - -
21/03:00am 8.7 NW 4 5 1028.8 - 0.0 - - - - - - -
21/02:30am 8.9 NW 4 6 1028.8 - 0.0 - - - - - - -
21/02:00am 8.8 NW 4 6 1028.9 - 0.0 - - - - - - -
21/01:30am 8.6 NNW 4 6 1029.2 - 0.0 - - - - - - -
21/01:00am 8.9 NW 3 4 1029.5 - 0.0 - - - - - - -
21/12:30am 9.8 WNW 4 6 1029.4 - 0.0 - - - - - - -
21/12:00am 10.2 WNW 4 6 1029.4 - 0.0 - - - - - - -
 
Date/Time
EST
Temp

°C
Wind Pressure Rain
since 9am
mm
Weather Cloud Vis
km
Sea
Height
m
Swell
Dir
 
Speed
knots
Gust
knots
hPa Trend Height
m
Period
s
Dir
20/11:30pm 10.5 NW 3 5 1029.4 - 0.0 - - - - - - -
20/11:00pm 10.7 NW 3 4 1029.5 - 0.0 - - - - - - -
20/10:30pm 10.8 NW 2 4 1029.7 - 0.0 - - - - - - -
20/10:00pm 11.1 WNW 2 3 1029.6 - 0.0 - - - - - - -
20/09:30pm 11.1 NW 3 4 1029.6 - 0.0 - - - - - - -
20/09:00pm 11.2 NW 2 3 1029.6 - 0.0 - - - - - - -
20/08:30pm 11.2 WNW 2 3 1029.4 - 0.0 - - - - - - -
20/08:00pm 11.2 NW 2 2 1029.2 - 0.0 - - - - - - -
20/07:30pm 11.3 WNW 1 2 1028.9 - 0.0 - - - - - - -
20/07:00pm 11.4 WNW 2 3 1028.5 - 0.0 - - - - - - -
20/06:30pm 11.4 WNW 2 3 1028.1 - 0.0 - - - - - - -
20/06:00pm 11.5 WSW 2 4 1027.8 - 0.0 - - - - - - -
20/05:30pm 11.9 WSW 3 5 1027.3 - 0.0 - - - - - - -
20/05:00pm 12.7 SSW 4 7 1027.1 - 0.0 - - - - - - -
20/04:30pm 13.1 SW 7 9 1026.7 - 0.0 - - - - - - -
20/04:00pm 13.7 SSW 8 11 1026.4 - 0.0 - - - - - - -
20/03:30pm 14.3 SSW 9 12 1026.2 - 0.0 - - - - - - -
20/03:00pm 14.4 SW 9 13 1025.9 - 0.0 - - - - - - -
20/02:30pm 14.9 SSW 8 12 1025.8 - 0.0 - - - - - - -
20/02:00pm 15.0 SW 10 14 1025.7 - 0.0 - - - - - - -
20/01:30pm 15.4 SSW 9 14 1025.8 - 0.0 - - - - - - -
20/01:00pm 14.3 SW 10 14 1025.9 - 0.0 - - - - - - -
20/12:30pm 13.9 WSW 8 11 1026.2 - 0.0 - - - - - - -
20/12:00pm 14.5 W 6 9 1026.3 - 0.0 - - - - - - -
20/11:30am 12.9 WSW 8 16 1026.6 - 0.0 - - - - - - -
20/11:00am 12.6 W 5 9 1026.7 - 0.0 - - - - - - -
20/10:30am 12.4 W 9 13 1026.8 - 0.0 - - - - - - -
20/10:00am 12.4 W 8 14 1026.8 - 0.0 - - - - - - -
20/09:30am 11.5 W 7 11 1026.8 - 0.0 - - - - - - -
20/09:00am 12.2 W 7 10 1026.5 - 0.0 - - - - - - -
20/08:30am 11.9 WNW 7 13 1026.2 - 0.0 - - - - - - -

Other Formats:

Comma delimited format used in spreadsheet applications
http://www.bom.gov.au/fwo/IDV60701/IDV60701.95918.axf

JavaScript Object Notation format (JSON) in row-major order
http://www.bom.gov.au/fwo/IDV60701/IDV60701.95918.json